sensor_id;sensor_type;location;lat;lon;timestamp;temperature;humidity
61912;DHT22;49973;52.084;5.412;2023-01-19T00:01:05;2.80;99.90
61912;DHT22;49973;52.084;5.412;2023-01-19T00:03:35;2.80;99.90
61912;DHT22;49973;52.084;5.412;2023-01-19T00:06:04;2.80;99.90
61912;DHT22;49973;52.084;5.412;2023-01-19T00:08:34;2.80;99.90
61912;DHT22;49973;52.084;5.412;2023-01-19T00:11:03;2.90;99.90
61912;DHT22;49973;52.084;5.412;2023-01-19T00:13:32;2.80;99.90
61912;DHT22;49973;52.084;5.412;2023-01-19T00:16:00;2.90;99.90
61912;DHT22;49973;52.084;5.412;2023-01-19T00:18:29;2.90;99.90
61912;DHT22;49973;52.084;5.412;2023-01-19T00:20:59;2.90;99.90
61912;DHT22;49973;52.084;5.412;2023-01-19T00:23:27;2.90;99.90
61912;DHT22;49973;52.084;5.412;2023-01-19T00:25:56;2.90;99.90
61912;DHT22;49973;52.084;5.412;2023-01-19T00:28:25;2.90;99.90
61912;DHT22;49973;52.084;5.412;2023-01-19T00:30:53;2.90;99.90
61912;DHT22;49973;52.084;5.412;2023-01-19T00:33:22;2.90;99.90
61912;DHT22;49973;52.084;5.412;2023-01-19T00:35:51;2.90;99.90
61912;DHT22;49973;52.084;5.412;2023-01-19T00:38:22;2.90;99.90
61912;DHT22;49973;52.084;5.412;2023-01-19T00:40:51;3.00;99.90
61912;DHT22;49973;52.084;5.412;2023-01-19T00:43:19;3.00;99.90
61912;DHT22;49973;52.084;5.412;2023-01-19T00:45:47;3.00;99.90
61912;DHT22;49973;52.084;5.412;2023-01-19T00:48:15;3.00;99.90
61912;DHT22;49973;52.084;5.412;2023-01-19T00:50:44;3.00;99.90
61912;DHT22;49973;52.084;5.412;2023-01-19T00:53:12;2.90;99.90
61912;DHT22;49973;52.084;5.412;2023-01-19T00:55:42;2.90;99.90
61912;DHT22;49973;52.084;5.412;2023-01-19T00:58:11;2.80;99.90
61912;DHT22;49973;52.084;5.412;2023-01-19T01:00:39;2.80;99.90
61912;DHT22;49973;52.084;5.412;2023-01-19T01:03:08;2.80;99.90
61912;DHT22;49973;52.084;5.412;2023-01-19T01:05:39;2.80;99.90
61912;DHT22;49973;52.084;5.412;2023-01-19T01:08:08;2.90;99.90
61912;DHT22;49973;52.084;5.412;2023-01-19T01:10:37;2.80;99.90
61912;DHT22;49973;52.084;5.412;2023-01-19T01:13:07;2.80;99.90
61912;DHT22;49973;52.084;5.412;2023-01-19T01:15:48;2.80;99.90
61912;DHT22;49973;52.084;5.412;2023-01-19T01:18:18;2.80;99.90
61912;DHT22;49973;52.084;5.412;2023-01-19T01:20:47;2.80;99.90
61912;DHT22;49973;52.084;5.412;2023-01-19T01:23:15;2.70;99.90
61912;DHT22;49973;52.084;5.412;2023-01-19T01:25:49;2.70;99.90
61912;DHT22;49973;52.084;5.412;2023-01-19T01:28:19;2.60;99.90
61912;DHT22;49973;52.084;5.412;2023-01-19T01:30:51;2.50;99.90
61912;DHT22;49973;52.084;5.412;2023-01-19T01:33:20;2.40;99.90
61912;DHT22;49973;52.084;5.412;2023-01-19T01:36:08;2.40;99.90
61912;DHT22;49973;52.084;5.412;2023-01-19T01:38:38;2.40;99.90
61912;DHT22;49973;52.084;5.412;2023-01-19T01:41:07;2.40;99.90
61912;DHT22;49973;52.084;5.412;2023-01-19T01:43:46;2.40;99.90
61912;DHT22;49973;52.084;5.412;2023-01-19T01:46:16;2.40;99.90
61912;DHT22;49973;52.084;5.412;2023-01-19T01:48:49;2.50;99.90
61912;DHT22;49973;52.084;5.412;2023-01-19T01:51:24;2.40;99.90
61912;DHT22;49973;52.084;5.412;2023-01-19T01:54:03;2.40;99.90
61912;DHT22;49973;52.084;5.412;2023-01-19T01:56:36;2.40;99.90
61912;DHT22;49973;52.084;5.412;2023-01-19T01:59:10;2.40;99.90
61912;DHT22;49973;52.084;5.412;2023-01-19T02:01:39;2.40;99.90
61912;DHT22;49973;52.084;5.412;2023-01-19T02:04:26;2.40;99.90
61912;DHT22;49973;52.084;5.412;2023-01-19T02:06:55;2.50;99.90
61912;DHT22;49973;52.084;5.412;2023-01-19T02:09:41;2.50;99.90
61912;DHT22;49973;52.084;5.412;2023-01-19T02:12:27;2.50;99.90
61912;DHT22;49973;52.084;5.412;2023-01-19T02:15:16;2.50;99.90
61912;DHT22;49973;52.084;5.412;2023-01-19T02:17:45;2.50;99.90
61912;DHT22;49973;52.084;5.412;2023-01-19T02:20:14;2.50;99.90
61912;DHT22;49973;52.084;5.412;2023-01-19T02:22:46;2.60;99.90
61912;DHT22;49973;52.084;5.412;2023-01-19T02:25:18;2.60;99.90
61912;DHT22;49973;52.084;5.412;2023-01-19T02:27:47;2.60;99.90
61912;DHT22;49973;52.084;5.412;2023-01-19T02:30:16;2.70;99.90
61912;DHT22;49973;52.084;5.412;2023-01-19T02:32:45;2.70;99.90
61912;DHT22;49973;52.084;5.412;2023-01-19T02:35:14;2.80;99.90
61912;DHT22;49973;52.084;5.412;2023-01-19T02:37:43;2.80;99.90
61912;DHT22;49973;52.084;5.412;2023-01-19T02:40:14;2.90;99.90
61912;DHT22;49973;52.084;5.412;2023-01-19T02:42:49;3.00;99.90
61912;DHT22;49973;52.084;5.412;2023-01-19T02:45:19;3.00;99.90
61912;DHT22;49973;52.084;5.412;2023-01-19T02:47:50;3.10;99.90
61912;DHT22;49973;52.084;5.412;2023-01-19T02:50:38;3.10;99.90
61912;DHT22;49973;52.084;5.412;2023-01-19T02:56:05;3.10;99.90
61912;DHT22;49973;52.084;5.412;2023-01-19T02:58:41;3.20;99.90
61912;DHT22;49973;52.084;5.412;2023-01-19T03:01:18;3.20;99.90
61912;DHT22;49973;52.084;5.412;2023-01-19T03:03:53;3.20;99.90
61912;DHT22;49973;52.084;5.412;2023-01-19T03:06:32;3.20;99.90
61912;DHT22;49973;52.084;5.412;2023-01-19T03:09:07;3.20;99.90
61912;DHT22;49973;52.084;5.412;2023-01-19T03:11:38;3.20;99.90
61912;DHT22;49973;52.084;5.412;2023-01-19T03:14:12;3.20;99.90
61912;DHT22;49973;52.084;5.412;2023-01-19T03:16:45;3.20;99.90
61912;DHT22;49973;52.084;5.412;2023-01-19T03:19:18;3.30;99.90
61912;DHT22;49973;52.084;5.412;2023-01-19T03:21:50;3.20;99.90
61912;DHT22;49973;52.084;5.412;2023-01-19T03:24:21;3.20;99.90
61912;DHT22;49973;52.084;5.412;2023-01-19T03:26:52;3.30;99.90
61912;DHT22;49973;52.084;5.412;2023-01-19T03:29:27;3.30;99.90
61912;DHT22;49973;52.084;5.412;2023-01-19T03:31:58;3.30;99.90
61912;DHT22;49973;52.084;5.412;2023-01-19T03:34:29;3.30;99.90
61912;DHT22;49973;52.084;5.412;2023-01-19T03:37:00;3.30;99.90
61912;DHT22;49973;52.084;5.412;2023-01-19T03:39:30;3.30;99.90
61912;DHT22;49973;52.084;5.412;2023-01-19T03:42:01;3.30;99.90
61912;DHT22;49973;52.084;5.412;2023-01-19T03:44:35;3.30;99.90
61912;DHT22;49973;52.084;5.412;2023-01-19T03:47:05;3.30;99.90
61912;DHT22;49973;52.084;5.412;2023-01-19T03:49:35;3.30;99.90
61912;DHT22;49973;52.084;5.412;2023-01-19T03:52:05;3.30;99.90
61912;DHT22;49973;52.084;5.412;2023-01-19T03:54:33;3.20;99.90
61912;DHT22;49973;52.084;5.412;2023-01-19T03:57:02;3.20;99.90
61912;DHT22;49973;52.084;5.412;2023-01-19T03:59:32;3.20;99.90
61912;DHT22;49973;52.084;5.412;2023-01-19T04:02:01;3.10;99.90
61912;DHT22;49973;52.084;5.412;2023-01-19T04:04:30;3.10;99.90
61912;DHT22;49973;52.084;5.412;2023-01-19T04:06:59;3.00;99.90
61912;DHT22;49973;52.084;5.412;2023-01-19T04:09:27;2.90;99.90
61912;DHT22;49973;52.084;5.412;2023-01-19T04:11:56;2.90;99.90
61912;DHT22;49973;52.084;5.412;2023-01-19T04:14:24;2.80;99.90
61912;DHT22;49973;52.084;5.412;2023-01-19T04:16:54;2.70;99.90
61912;DHT22;49973;52.084;5.412;2023-01-19T04:19:23;2.70;99.90
61912;DHT22;49973;52.084;5.412;2023-01-19T04:21:51;2.60;99.90
61912;DHT22;49973;52.084;5.412;2023-01-19T04:24:21;2.60;99.90
61912;DHT22;49973;52.084;5.412;2023-01-19T04:26:50;2.50;99.90
61912;DHT22;49973;52.084;5.412;2023-01-19T04:29:19;2.50;99.90
61912;DHT22;49973;52.084;5.412;2023-01-19T04:31:48;2.50;99.90
61912;DHT22;49973;52.084;5.412;2023-01-19T04:34:18;2.40;99.90
61912;DHT22;49973;52.084;5.412;2023-01-19T04:36:46;2.40;99.90
61912;DHT22;49973;52.084;5.412;2023-01-19T04:39:17;2.40;99.90
61912;DHT22;49973;52.084;5.412;2023-01-19T04:41:45;2.30;99.90
61912;DHT22;49973;52.084;5.412;2023-01-19T04:44:14;2.30;99.90
61912;DHT22;49973;52.084;5.412;2023-01-19T04:46:42;2.30;99.90
61912;DHT22;49973;52.084;5.412;2023-01-19T04:49:11;2.30;99.90
61912;DHT22;49973;52.084;5.412;2023-01-19T04:51:41;2.30;99.90
61912;DHT22;49973;52.084;5.412;2023-01-19T04:54:10;2.20;99.90
61912;DHT22;49973;52.084;5.412;2023-01-19T04:56:39;2.20;99.90
61912;DHT22;49973;52.084;5.412;2023-01-19T04:59:08;2.20;99.90
61912;DHT22;49973;52.084;5.412;2023-01-19T05:01:36;2.20;99.90
61912;DHT22;49973;52.084;5.412;2023-01-19T05:04:05;2.20;99.90
61912;DHT22;49973;52.084;5.412;2023-01-19T05:06:34;2.20;99.90
61912;DHT22;49973;52.084;5.412;2023-01-19T05:09:04;2.20;99.90
61912;DHT22;49973;52.084;5.412;2023-01-19T05:11:34;2.20;99.90
61912;DHT22;49973;52.084;5.412;2023-01-19T05:14:02;2.30;99.90
61912;DHT22;49973;52.084;5.412;2023-01-19T05:16:31;2.30;99.90
61912;DHT22;49973;52.084;5.412;2023-01-19T05:19:00;2.30;99.90
61912;DHT22;49973;52.084;5.412;2023-01-19T05:21:29;2.30;99.90
61912;DHT22;49973;52.084;5.412;2023-01-19T05:23:58;2.30;99.90
61912;DHT22;49973;52.084;5.412;2023-01-19T05:26:27;2.30;99.90
61912;DHT22;49973;52.084;5.412;2023-01-19T05:28:56;2.30;99.90
61912;DHT22;49973;52.084;5.412;2023-01-19T05:31:25;2.40;99.90
61912;DHT22;49973;52.084;5.412;2023-01-19T05:33:53;2.40;99.90
61912;DHT22;49973;52.084;5.412;2023-01-19T05:36:22;2.40;99.90
61912;DHT22;49973;52.084;5.412;2023-01-19T05:38:50;2.50;99.90
61912;DHT22;49973;52.084;5.412;2023-01-19T05:41:19;2.60;99.90
61912;DHT22;49973;52.084;5.412;2023-01-19T05:43:49;2.60;99.90
61912;DHT22;49973;52.084;5.412;2023-01-19T05:46:17;2.60;99.90
61912;DHT22;49973;52.084;5.412;2023-01-19T05:48:46;2.60;99.90
61912;DHT22;49973;52.084;5.412;2023-01-19T05:51:15;2.60;99.90
61912;DHT22;49973;52.084;5.412;2023-01-19T05:53:43;2.60;99.90
61912;DHT22;49973;52.084;5.412;2023-01-19T05:56:12;2.60;99.90
61912;DHT22;49973;52.084;5.412;2023-01-19T05:58:40;2.60;99.90
61912;DHT22;49973;52.084;5.412;2023-01-19T06:01:10;2.60;99.90
61912;DHT22;49973;52.084;5.412;2023-01-19T06:03:39;2.70;99.90
61912;DHT22;49973;52.084;5.412;2023-01-19T06:06:08;2.70;99.90
61912;DHT22;49973;52.084;5.412;2023-01-19T06:08:37;2.70;99.90
61912;DHT22;49973;52.084;5.412;2023-01-19T06:11:07;2.70;99.90
61912;DHT22;49973;52.084;5.412;2023-01-19T06:13:35;2.60;99.90
61912;DHT22;49973;52.084;5.412;2023-01-19T06:16:10;2.70;99.90
61912;DHT22;49973;52.084;5.412;2023-01-19T06:18:39;2.70;99.90
61912;DHT22;49973;52.084;5.412;2023-01-19T06:21:08;2.60;99.90
61912;DHT22;49973;52.084;5.412;2023-01-19T06:23:40;2.60;99.90
61912;DHT22;49973;52.084;5.412;2023-01-19T06:26:08;2.60;99.90
61912;DHT22;49973;52.084;5.412;2023-01-19T06:28:37;2.50;99.90
61912;DHT22;49973;52.084;5.412;2023-01-19T06:31:05;2.50;99.90
61912;DHT22;49973;52.084;5.412;2023-01-19T06:33:35;2.50;99.90
61912;DHT22;49973;52.084;5.412;2023-01-19T06:36:04;2.50;99.90
61912;DHT22;49973;52.084;5.412;2023-01-19T06:38:33;2.50;99.90
61912;DHT22;49973;52.084;5.412;2023-01-19T06:41:01;2.50;99.90
61912;DHT22;49973;52.084;5.412;2023-01-19T06:43:31;2.40;99.90
61912;DHT22;49973;52.084;5.412;2023-01-19T06:46:00;2.40;99.90
61912;DHT22;49973;52.084;5.412;2023-01-19T06:48:29;2.40;99.90
61912;DHT22;49973;52.084;5.412;2023-01-19T06:50:59;2.40;99.90
61912;DHT22;49973;52.084;5.412;2023-01-19T06:53:27;2.50;99.90
61912;DHT22;49973;52.084;5.412;2023-01-19T06:56:00;2.30;99.90
61912;DHT22;49973;52.084;5.412;2023-01-19T06:58:31;2.30;99.90
61912;DHT22;49973;52.084;5.412;2023-01-19T07:01:01;2.30;99.90
61912;DHT22;49973;52.084;5.412;2023-01-19T07:03:30;2.30;99.90
61912;DHT22;49973;52.084;5.412;2023-01-19T07:06:00;2.30;99.90
61912;DHT22;49973;52.084;5.412;2023-01-19T07:08:29;2.20;99.90
61912;DHT22;49973;52.084;5.412;2023-01-19T07:10:58;2.20;99.90
61912;DHT22;49973;52.084;5.412;2023-01-19T07:13:48;2.20;99.90
61912;DHT22;49973;52.084;5.412;2023-01-19T07:16:18;2.20;99.90
61912;DHT22;49973;52.084;5.412;2023-01-19T07:18:47;2.20;99.90
61912;DHT22;49973;52.084;5.412;2023-01-19T07:21:17;2.30;99.90
61912;DHT22;49973;52.084;5.412;2023-01-19T07:23:47;2.30;99.90
61912;DHT22;49973;52.084;5.412;2023-01-19T07:26:16;2.30;99.90
61912;DHT22;49973;52.084;5.412;2023-01-19T07:28:47;2.30;99.90
61912;DHT22;49973;52.084;5.412;2023-01-19T07:31:16;2.20;99.90
61912;DHT22;49973;52.084;5.412;2023-01-19T07:33:45;2.20;99.90
61912;DHT22;49973;52.084;5.412;2023-01-19T07:36:14;2.20;99.90
61912;DHT22;49973;52.084;5.412;2023-01-19T07:38:44;2.10;99.90
61912;DHT22;49973;52.084;5.412;2023-01-19T07:41:12;2.10;99.90
61912;DHT22;49973;52.084;5.412;2023-01-19T07:43:41;2.10;99.90
61912;DHT22;49973;52.084;5.412;2023-01-19T07:46:09;2.10;99.90
61912;DHT22;49973;52.084;5.412;2023-01-19T07:48:38;2.10;99.90
61912;DHT22;49973;52.084;5.412;2023-01-19T07:51:07;2.10;99.90
61912;DHT22;49973;52.084;5.412;2023-01-19T07:53:39;2.10;99.90
61912;DHT22;49973;52.084;5.412;2023-01-19T07:56:10;2.10;99.90
61912;DHT22;49973;52.084;5.412;2023-01-19T07:58:38;2.10;99.90
61912;DHT22;49973;52.084;5.412;2023-01-19T08:01:08;2.20;99.90
61912;DHT22;49973;52.084;5.412;2023-01-19T08:03:37;2.20;99.90
61912;DHT22;49973;52.084;5.412;2023-01-19T08:06:09;2.20;99.90
61912;DHT22;49973;52.084;5.412;2023-01-19T08:08:41;2.20;99.90
61912;DHT22;49973;52.084;5.412;2023-01-19T08:11:11;2.10;99.90
61912;DHT22;49973;52.084;5.412;2023-01-19T08:13:40;2.10;99.90
61912;DHT22;49973;52.084;5.412;2023-01-19T08:16:08;2.10;99.90
61912;DHT22;49973;52.084;5.412;2023-01-19T08:18:37;2.10;99.90
61912;DHT22;49973;52.084;5.412;2023-01-19T08:21:05;2.10;99.90
61912;DHT22;49973;52.084;5.412;2023-01-19T08:23:34;2.00;99.90
61912;DHT22;49973;52.084;5.412;2023-01-19T08:26:17;2.00;99.90
61912;DHT22;49973;52.084;5.412;2023-01-19T08:28:46;2.00;99.90
61912;DHT22;49973;52.084;5.412;2023-01-19T08:31:15;1.90;99.90
61912;DHT22;49973;52.084;5.412;2023-01-19T08:33:48;2.00;99.90
61912;DHT22;49973;52.084;5.412;2023-01-19T08:36:17;1.90;99.90
61912;DHT22;49973;52.084;5.412;2023-01-19T08:38:46;1.90;99.90
61912;DHT22;49973;52.084;5.412;2023-01-19T08:41:15;1.90;99.90
61912;DHT22;49973;52.084;5.412;2023-01-19T08:43:45;1.90;99.90
61912;DHT22;49973;52.084;5.412;2023-01-19T08:46:14;1.90;99.90
61912;DHT22;49973;52.084;5.412;2023-01-19T08:48:43;2.00;99.90
61912;DHT22;49973;52.084;5.412;2023-01-19T08:51:14;2.00;99.90
61912;DHT22;49973;52.084;5.412;2023-01-19T08:53:43;2.00;99.90
61912;DHT22;49973;52.084;5.412;2023-01-19T08:56:11;2.00;99.90
61912;DHT22;49973;52.084;5.412;2023-01-19T08:58:41;2.10;99.90
61912;DHT22;49973;52.084;5.412;2023-01-19T09:01:12;2.10;99.90
61912;DHT22;49973;52.084;5.412;2023-01-19T09:03:43;2.20;99.90
61912;DHT22;49973;52.084;5.412;2023-01-19T09:06:13;2.30;99.90
61912;DHT22;49973;52.084;5.412;2023-01-19T09:08:43;2.30;99.90
61912;DHT22;49973;52.084;5.412;2023-01-19T09:11:13;2.50;99.90
61912;DHT22;49973;52.084;5.412;2023-01-19T09:13:42;2.60;99.90
61912;DHT22;49973;52.084;5.412;2023-01-19T09:16:13;2.90;99.90
61912;DHT22;49973;52.084;5.412;2023-01-19T09:18:42;2.90;99.90
61912;DHT22;49973;52.084;5.412;2023-01-19T09:21:12;3.00;99.90
61912;DHT22;49973;52.084;5.412;2023-01-19T09:23:41;3.10;99.90
61912;DHT22;49973;52.084;5.412;2023-01-19T09:26:10;3.30;99.90
61912;DHT22;49973;52.084;5.412;2023-01-19T09:28:38;3.30;99.90
61912;DHT22;49973;52.084;5.412;2023-01-19T09:31:07;3.40;99.90
61912;DHT22;49973;52.084;5.412;2023-01-19T09:33:38;3.40;99.90
61912;DHT22;49973;52.084;5.412;2023-01-19T09:36:07;3.40;99.90
61912;DHT22;49973;52.084;5.412;2023-01-19T09:38:35;3.40;99.90
61912;DHT22;49973;52.084;5.412;2023-01-19T09:41:13;3.40;99.90
61912;DHT22;49973;52.084;5.412;2023-01-19T09:43:47;3.40;99.90
61912;DHT22;49973;52.084;5.412;2023-01-19T09:46:21;3.30;99.90
61912;DHT22;49973;52.084;5.412;2023-01-19T09:48:54;3.30;99.90
61912;DHT22;49973;52.084;5.412;2023-01-19T09:51:32;3.20;99.90
61912;DHT22;49973;52.084;5.412;2023-01-19T09:54:10;3.20;99.90
61912;DHT22;49973;52.084;5.412;2023-01-19T09:56:41;3.20;99.90
61912;DHT22;49973;52.084;5.412;2023-01-19T09:59:18;3.20;99.90
61912;DHT22;49973;52.084;5.412;2023-01-19T10:02:18;3.20;99.90
61912;DHT22;49973;52.084;5.412;2023-01-19T10:04:58;3.20;99.90
61912;DHT22;49973;52.084;5.412;2023-01-19T10:07:39;3.20;99.90
61912;DHT22;49973;52.084;5.412;2023-01-19T10:10:17;3.20;99.90
61912;DHT22;49973;52.084;5.412;2023-01-19T10:13:04;3.30;99.90
61912;DHT22;49973;52.084;5.412;2023-01-19T10:15:44;3.30;99.90
61912;DHT22;49973;52.084;5.412;2023-01-19T10:18:18;3.40;99.90
61912;DHT22;49973;52.084;5.412;2023-01-19T10:20:50;3.40;99.90
61912;DHT22;49973;52.084;5.412;2023-01-19T10:23:28;3.50;99.90
61912;DHT22;49973;52.084;5.412;2023-01-19T10:26:02;3.50;99.90
61912;DHT22;49973;52.084;5.412;2023-01-19T10:28:35;3.50;99.90
61912;DHT22;49973;52.084;5.412;2023-01-19T10:31:05;3.60;99.90
61912;DHT22;49973;52.084;5.412;2023-01-19T10:33:38;3.60;99.90
61912;DHT22;49973;52.084;5.412;2023-01-19T10:36:16;3.70;99.90
61912;DHT22;49973;52.084;5.412;2023-01-19T10:38:46;3.70;99.90
61912;DHT22;49973;52.084;5.412;2023-01-19T10:41:22;3.80;99.90
61912;DHT22;49973;52.084;5.412;2023-01-19T10:44:01;3.80;99.90
61912;DHT22;49973;52.084;5.412;2023-01-19T10:46:36;3.80;99.90
61912;DHT22;49973;52.084;5.412;2023-01-19T10:49:06;3.90;99.90
61912;DHT22;49973;52.084;5.412;2023-01-19T10:51:50;3.90;99.90
61912;DHT22;49973;52.084;5.412;2023-01-19T10:54:19;3.90;99.90
61912;DHT22;49973;52.084;5.412;2023-01-19T10:56:53;4.00;99.90
61912;DHT22;49973;52.084;5.412;2023-01-19T10:59:34;4.00;99.90
61912;DHT22;49973;52.084;5.412;2023-01-19T11:02:15;4.00;99.90
61912;DHT22;49973;52.084;5.412;2023-01-19T11:04:45;4.00;99.90
61912;DHT22;49973;52.084;5.412;2023-01-19T11:07:20;4.10;99.90
61912;DHT22;49973;52.084;5.412;2023-01-19T11:10:19;4.10;99.90
61912;DHT22;49973;52.084;5.412;2023-01-19T11:12:56;4.10;99.90
61912;DHT22;49973;52.084;5.412;2023-01-19T11:15:34;4.10;99.90
61912;DHT22;49973;52.084;5.412;2023-01-19T11:18:04;4.20;99.90
61912;DHT22;49973;52.084;5.412;2023-01-19T11:20:39;4.20;99.90
61912;DHT22;49973;52.084;5.412;2023-01-19T11:23:23;4.20;99.90
61912;DHT22;49973;52.084;5.412;2023-01-19T11:25:55;4.30;99.90
61912;DHT22;49973;52.084;5.412;2023-01-19T11:28:27;4.30;99.90
61912;DHT22;49973;52.084;5.412;2023-01-19T11:30:59;4.50;99.90
61912;DHT22;49973;52.084;5.412;2023-01-19T11:33:33;4.50;99.90
61912;DHT22;49973;52.084;5.412;2023-01-19T11:36:04;4.70;99.90
61912;DHT22;49973;52.084;5.412;2023-01-19T11:38:42;4.80;99.90
61912;DHT22;49973;52.084;5.412;2023-01-19T11:41:17;4.90;99.90
61912;DHT22;49973;52.084;5.412;2023-01-19T11:43:49;5.00;99.90
61912;DHT22;49973;52.084;5.412;2023-01-19T11:46:19;5.10;99.90
61912;DHT22;49973;52.084;5.412;2023-01-19T11:48:52;5.20;99.90
61912;DHT22;49973;52.084;5.412;2023-01-19T11:51:24;5.30;99.90
61912;DHT22;49973;52.084;5.412;2023-01-19T11:53:56;5.40;99.90
61912;DHT22;49973;52.084;5.412;2023-01-19T11:56:27;5.50;99.90
61912;DHT22;49973;52.084;5.412;2023-01-19T11:58:56;5.60;99.90
61912;DHT22;49973;52.084;5.412;2023-01-19T12:01:28;5.80;99.90
61912;DHT22;49973;52.084;5.412;2023-01-19T12:04:00;5.80;99.90
61912;DHT22;49973;52.084;5.412;2023-01-19T12:06:33;6.00;99.90
61912;DHT22;49973;52.084;5.412;2023-01-19T12:09:10;6.00;99.90
61912;DHT22;49973;52.084;5.412;2023-01-19T12:11:43;6.10;99.90
61912;DHT22;49973;52.084;5.412;2023-01-19T12:14:17;6.10;99.90
61912;DHT22;49973;52.084;5.412;2023-01-19T12:16:48;6.00;99.90
61912;DHT22;49973;52.084;5.412;2023-01-19T12:19:22;6.10;99.90
61912;DHT22;49973;52.084;5.412;2023-01-19T12:21:52;6.20;99.90
61912;DHT22;49973;52.084;5.412;2023-01-19T12:24:28;6.20;99.90
61912;DHT22;49973;52.084;5.412;2023-01-19T12:26:58;6.20;99.90
61912;DHT22;49973;52.084;5.412;2023-01-19T12:29:30;6.30;99.90
61912;DHT22;49973;52.084;5.412;2023-01-19T12:32:17;6.30;99.90
61912;DHT22;49973;52.084;5.412;2023-01-19T12:34:46;6.40;99.90
61912;DHT22;49973;52.084;5.412;2023-01-19T12:37:35;6.40;99.90
61912;DHT22;49973;52.084;5.412;2023-01-19T12:40:25;6.40;99.90
61912;DHT22;49973;52.084;5.412;2023-01-19T12:42:57;6.40;99.90
61912;DHT22;49973;52.084;5.412;2023-01-19T12:45:31;6.40;99.90
61912;DHT22;49973;52.084;5.412;2023-01-19T12:48:01;6.30;99.90
61912;DHT22;49973;52.084;5.412;2023-01-19T12:50:34;6.20;99.90
61912;DHT22;49973;52.084;5.412;2023-01-19T12:53:14;6.20;99.90
61912;DHT22;49973;52.084;5.412;2023-01-19T12:55:44;6.10;99.90
61912;DHT22;49973;52.084;5.412;2023-01-19T12:58:15;6.10;99.90
61912;DHT22;49973;52.084;5.412;2023-01-19T13:00:46;6.00;99.90
61912;DHT22;49973;52.084;5.412;2023-01-19T13:03:41;6.00;99.90
61912;DHT22;49973;52.084;5.412;2023-01-19T13:06:10;5.90;99.90
61912;DHT22;49973;52.084;5.412;2023-01-19T13:08:59;5.90;99.90
61912;DHT22;49973;52.084;5.412;2023-01-19T13:11:29;5.80;99.90
61912;DHT22;49973;52.084;5.412;2023-01-19T13:17:25;5.80;99.90
61912;DHT22;49973;52.084;5.412;2023-01-19T13:20:24;5.90;99.90
61912;DHT22;49973;52.084;5.412;2023-01-19T13:23:15;5.90;99.90
61912;DHT22;49973;52.084;5.412;2023-01-19T13:25:48;6.00;99.90
61912;DHT22;49973;52.084;5.412;2023-01-19T13:28:24;6.00;99.90
61912;DHT22;49973;52.084;5.412;2023-01-19T13:30:57;6.00;99.90
61912;DHT22;49973;52.084;5.412;2023-01-19T13:33:35;6.00;99.90
61912;DHT22;49973;52.084;5.412;2023-01-19T13:36:17;6.00;99.90
61912;DHT22;49973;52.084;5.412;2023-01-19T13:38:47;6.10;99.90
61912;DHT22;49973;52.084;5.412;2023-01-19T13:41:19;6.10;99.90
61912;DHT22;49973;52.084;5.412;2023-01-19T13:44:00;6.20;99.90
61912;DHT22;49973;52.084;5.412;2023-01-19T13:46:30;6.20;99.90
61912;DHT22;49973;52.084;5.412;2023-01-19T13:49:03;6.30;99.90
61912;DHT22;49973;52.084;5.412;2023-01-19T13:51:32;6.40;99.90
61912;DHT22;49973;52.084;5.412;2023-01-19T13:54:00;6.30;99.90
61912;DHT22;49973;52.084;5.412;2023-01-19T13:56:29;6.30;99.90
61912;DHT22;49973;52.084;5.412;2023-01-19T13:59:05;6.20;99.90
61912;DHT22;49973;52.084;5.412;2023-01-19T14:01:39;6.20;99.90
61912;DHT22;49973;52.084;5.412;2023-01-19T14:04:25;6.20;99.90
61912;DHT22;49973;52.084;5.412;2023-01-19T14:06:56;6.20;99.90
61912;DHT22;49973;52.084;5.412;2023-01-19T14:09:26;6.20;99.90
61912;DHT22;49973;52.084;5.412;2023-01-19T14:12:08;6.20;99.90
61912;DHT22;49973;52.084;5.412;2023-01-19T14:14:39;6.20;99.90
61912;DHT22;49973;52.084;5.412;2023-01-19T14:17:23;6.20;99.90
61912;DHT22;49973;52.084;5.412;2023-01-19T14:19:52;6.10;99.90
61912;DHT22;49973;52.084;5.412;2023-01-19T14:22:37;6.10;99.90
61912;DHT22;49973;52.084;5.412;2023-01-19T14:25:26;6.00;99.90
61912;DHT22;49973;52.084;5.412;2023-01-19T14:28:26;6.10;99.90
61912;DHT22;49973;52.084;5.412;2023-01-19T14:30:58;5.90;99.90
61912;DHT22;49973;52.084;5.412;2023-01-19T14:33:34;5.90;99.90
61912;DHT22;49973;52.084;5.412;2023-01-19T14:36:26;5.80;99.90
61912;DHT22;49973;52.084;5.412;2023-01-19T14:38:57;5.80;99.90
61912;DHT22;49973;52.084;5.412;2023-01-19T14:41:30;5.70;99.90
61912;DHT22;49973;52.084;5.412;2023-01-19T14:44:01;5.60;99.90
61912;DHT22;49973;52.084;5.412;2023-01-19T14:46:31;5.50;99.90
61912;DHT22;49973;52.084;5.412;2023-01-19T14:49:02;5.50;99.90
61912;DHT22;49973;52.084;5.412;2023-01-19T14:51:31;5.40;99.90
61912;DHT22;49973;52.084;5.412;2023-01-19T14:54:00;5.40;99.90
61912;DHT22;49973;52.084;5.412;2023-01-19T14:56:31;5.20;99.90
61912;DHT22;49973;52.084;5.412;2023-01-19T14:59:00;5.10;99.90
61912;DHT22;49973;52.084;5.412;2023-01-19T15:01:30;5.00;99.90
61912;DHT22;49973;52.084;5.412;2023-01-19T15:03:59;4.90;99.90
61912;DHT22;49973;52.084;5.412;2023-01-19T15:06:28;4.80;99.90
61912;DHT22;49973;52.084;5.412;2023-01-19T15:08:56;4.70;99.90
61912;DHT22;49973;52.084;5.412;2023-01-19T15:11:28;4.70;99.90
61912;DHT22;49973;52.084;5.412;2023-01-19T15:13:57;4.60;99.90
61912;DHT22;49973;52.084;5.412;2023-01-19T15:16:27;4.50;99.90
61912;DHT22;49973;52.084;5.412;2023-01-19T15:18:57;4.40;99.90
61912;DHT22;49973;52.084;5.412;2023-01-19T15:21:26;4.30;99.90
61912;DHT22;49973;52.084;5.412;2023-01-19T15:23:54;4.30;99.90
61912;DHT22;49973;52.084;5.412;2023-01-19T15:26:25;4.20;99.90
61912;DHT22;49973;52.084;5.412;2023-01-19T15:28:54;4.20;99.90
61912;DHT22;49973;52.084;5.412;2023-01-19T15:31:24;4.10;99.90
61912;DHT22;49973;52.084;5.412;2023-01-19T15:33:54;4.10;99.90
61912;DHT22;49973;52.084;5.412;2023-01-19T15:36:24;4.00;99.90
61912;DHT22;49973;52.084;5.412;2023-01-19T15:38:52;3.90;99.90
61912;DHT22;49973;52.084;5.412;2023-01-19T15:41:25;3.80;99.90
61912;DHT22;49973;52.084;5.412;2023-01-19T15:43:54;3.80;99.90
61912;DHT22;49973;52.084;5.412;2023-01-19T15:46:24;3.70;99.90
61912;DHT22;49973;52.084;5.412;2023-01-19T15:48:53;3.70;99.90
61912;DHT22;49973;52.084;5.412;2023-01-19T15:51:24;3.60;99.90
61912;DHT22;49973;52.084;5.412;2023-01-19T15:53:54;3.60;99.90
61912;DHT22;49973;52.084;5.412;2023-01-19T15:56:24;3.50;99.90
61912;DHT22;49973;52.084;5.412;2023-01-19T15:58:53;3.40;99.90
61912;DHT22;49973;52.084;5.412;2023-01-19T16:01:24;3.50;99.90
61912;DHT22;49973;52.084;5.412;2023-01-19T16:03:58;3.40;99.90
61912;DHT22;49973;52.084;5.412;2023-01-19T16:06:29;3.30;99.90
61912;DHT22;49973;52.084;5.412;2023-01-19T16:08:58;3.20;99.90
61912;DHT22;49973;52.084;5.412;2023-01-19T16:11:29;3.20;99.90
61912;DHT22;49973;52.084;5.412;2023-01-19T16:13:58;3.10;99.90
61912;DHT22;49973;52.084;5.412;2023-01-19T16:16:27;3.00;99.90
61912;DHT22;49973;52.084;5.412;2023-01-19T16:18:56;3.00;99.90
61912;DHT22;49973;52.084;5.412;2023-01-19T16:21:25;2.90;99.90